createdAt,value
2018-11-06T00:01:37.108Z,99.90
2018-11-06T00:04:08.184Z,99.90
2018-11-06T00:06:39.529Z,99.90
2018-11-06T00:09:11.346Z,99.90
2018-11-06T00:11:42.559Z,99.90
2018-11-06T00:14:13.562Z,99.90
2018-11-06T00:16:45.071Z,99.90
2018-11-06T00:19:16.875Z,99.90
2018-11-06T00:21:47.789Z,99.90
2018-11-06T00:24:18.684Z,99.90
2018-11-06T00:26:49.869Z,99.90
2018-11-06T00:29:21.046Z,99.90
2018-11-06T00:31:51.959Z,99.90
2018-11-06T00:34:23.270Z,99.90
2018-11-06T00:36:54.421Z,99.90
2018-11-06T00:39:25.722Z,99.90
2018-11-06T00:41:56.652Z,99.90
2018-11-06T00:44:28.517Z,99.90
2018-11-06T00:47:00.242Z,99.90
2018-11-06T00:49:31.254Z,99.90
2018-11-06T00:52:02.242Z,99.90
2018-11-06T00:54:33.200Z,99.90
2018-11-06T00:57:04.407Z,99.90
2018-11-06T00:59:36.264Z,99.90
2018-11-06T01:02:07.446Z,99.90
2018-11-06T01:04:39.396Z,99.90
2018-11-06T01:07:11.155Z,99.90
2018-11-06T01:09:42.078Z,99.90
2018-11-06T01:12:13.407Z,99.90
2018-11-06T01:14:44.392Z,99.90
2018-11-06T01:17:15.277Z,99.90
2018-11-06T01:19:46.171Z,99.90
2018-11-06T01:22:17.046Z,99.90
2018-11-06T01:24:48.218Z,99.90
2018-11-06T01:27:20.289Z,99.90
2018-11-06T01:29:51.948Z,99.90
2018-11-06T01:32:22.884Z,99.90
2018-11-06T01:34:53.882Z,99.90
2018-11-06T01:37:25.167Z,99.90
2018-11-06T01:39:56.179Z,99.90
2018-11-06T01:42:27.502Z,99.90
2018-11-06T01:44:58.970Z,99.90
2018-11-06T01:47:29.852Z,99.90
2018-11-06T01:50:01.117Z,99.90
2018-11-06T01:52:31.995Z,99.90
2018-11-06T01:55:02.878Z,99.90
2018-11-06T01:57:33.804Z,99.90
2018-11-06T02:00:04.798Z,99.90
2018-11-06T02:02:36.137Z,99.90
2018-11-06T02:05:26.540Z,99.90
2018-11-06T02:07:57.534Z,99.90
2018-11-06T02:10:28.473Z,99.90
2018-11-06T02:12:59.694Z,99.90
2018-11-06T02:15:30.595Z,99.90
2018-11-06T02:18:01.483Z,99.90
2018-11-06T02:20:32.384Z,99.90
2018-11-06T02:23:03.628Z,99.90
2018-11-06T02:25:35.398Z,99.90
2018-11-06T02:28:06.301Z,99.90
2018-11-06T02:30:37.196Z,99.90
2018-11-06T02:33:08.191Z,99.90
2018-11-06T02:35:39.119Z,99.90
2018-11-06T02:38:10.006Z,99.90
2018-11-06T02:40:40.889Z,99.90
2018-11-06T02:43:12.093Z,99.90
2018-11-06T02:45:43.356Z,99.90
2018-11-06T02:48:14.545Z,99.90
2018-11-06T02:50:45.446Z,99.90
2018-11-06T02:53:16.384Z,99.90
2018-11-06T02:55:47.366Z,99.90
2018-11-06T02:58:19.358Z,99.90
2018-11-06T03:00:50.332Z,99.90
2018-11-06T03:03:21.569Z,99.90
2018-11-06T03:05:53.406Z,99.90
2018-11-06T03:08:24.320Z,99.90
2018-11-06T03:10:55.258Z,99.90
2018-11-06T03:13:26.647Z,99.90
2018-11-06T03:15:57.544Z,99.90
2018-11-06T03:18:28.425Z,99.90
2018-11-06T03:20:59.317Z,99.90
2018-11-06T03:23:30.196Z,99.90
2018-11-06T03:26:01.397Z,99.90
2018-11-06T03:28:32.257Z,99.90
2018-11-06T03:31:03.510Z,99.90
2018-11-06T03:33:34.370Z,99.90
2018-11-06T03:36:05.333Z,99.90
2018-11-06T03:38:36.214Z,99.90
2018-11-06T03:41:07.214Z,99.90
2018-11-06T03:43:38.110Z,99.90
2018-11-06T03:46:09.062Z,99.90
2018-11-06T03:48:39.965Z,99.90
2018-11-06T03:51:10.826Z,99.90
2018-11-06T03:53:41.674Z,99.90
2018-11-06T03:56:13.111Z,99.90
2018-11-06T03:58:44.021Z,99.90
2018-11-06T04:01:15.194Z,99.90
2018-11-06T04:03:46.118Z,99.90
2018-11-06T04:06:17.355Z,99.90
2018-11-06T04:08:48.553Z,99.90
2018-11-06T04:11:19.456Z,99.90
2018-11-06T04:13:50.449Z,99.90
2018-11-06T04:16:21.351Z,99.90
2018-11-06T04:18:52.250Z,99.90
2018-11-06T04:21:35.426Z,99.90
2018-11-06T04:24:07.859Z,99.90
2018-11-06T04:26:39.317Z,99.90
2018-11-06T04:29:10.760Z,99.90
2018-11-06T04:31:41.686Z,99.90
2018-11-06T04:34:12.598Z,99.90
2018-11-06T04:36:43.577Z,99.90
2018-11-06T04:39:14.465Z,99.90
2018-11-06T04:41:45.336Z,99.90
2018-11-06T04:44:16.198Z,99.90
2018-11-06T04:46:47.105Z,99.90
2018-11-06T04:49:18.796Z,99.90
2018-11-06T04:51:50.028Z,99.90
2018-11-06T04:54:20.911Z,99.90
2018-11-06T04:56:51.939Z,99.90
2018-11-06T04:59:22.797Z,99.90
2018-11-06T05:01:53.789Z,99.90
2018-11-06T05:04:24.642Z,99.90
2018-11-06T05:06:55.617Z,99.90
2018-11-06T05:09:26.437Z,99.90
2018-11-06T05:11:57.690Z,99.90
2018-11-06T05:14:28.621Z,99.90
2018-11-06T05:16:59.530Z,99.90
2018-11-06T05:19:30.419Z,99.90
2018-11-06T05:22:01.308Z,99.90
2018-11-06T05:24:32.171Z,99.90
2018-11-06T05:27:03.732Z,99.90
2018-11-06T05:29:34.912Z,99.90
2018-11-06T05:32:06.251Z,99.90
2018-11-06T05:34:37.187Z,99.90
2018-11-06T05:37:08.201Z,99.90
2018-11-06T05:40:16.871Z,99.90
2018-11-06T05:42:48.185Z,99.90
2018-11-06T05:45:19.321Z,99.90
2018-11-06T05:47:50.185Z,99.90
2018-11-06T05:50:21.096Z,99.90
2018-11-06T05:52:52.270Z,99.90
2018-11-06T05:55:59.478Z,99.90
2018-11-06T05:58:30.671Z,99.90
2018-11-06T06:01:01.565Z,99.90
2018-11-06T06:03:32.902Z,99.90
2018-11-06T06:06:04.116Z,99.90
2018-11-06T06:08:35.645Z,99.90
2018-11-06T06:11:06.978Z,99.90
2018-11-06T06:13:37.850Z,99.90
2018-11-06T06:16:09.074Z,99.90
2018-11-06T06:18:39.937Z,99.90
2018-11-06T06:21:10.865Z,99.90
2018-11-06T06:23:41.798Z,99.90
2018-11-06T06:26:12.681Z,99.90
2018-11-06T06:28:43.737Z,99.90
2018-11-06T06:31:14.626Z,99.90
2018-11-06T06:33:45.499Z,99.90
2018-11-06T06:36:16.412Z,99.90
2018-11-06T06:38:47.389Z,99.90
2018-11-06T06:41:18.180Z,99.90
2018-11-06T06:43:49.045Z,99.90
2018-11-06T06:46:20.401Z,99.90
2018-11-06T06:48:51.256Z,99.90
2018-11-06T06:51:22.168Z,99.90
2018-11-06T06:53:53.239Z,99.90
2018-11-06T06:56:24.093Z,99.90
2018-11-06T06:58:55.901Z,99.90
2018-11-06T07:01:26.794Z,99.90
2018-11-06T07:03:58.001Z,99.90
2018-11-06T07:06:28.875Z,99.90
2018-11-06T07:09:00.153Z,99.90
2018-11-06T07:11:31.056Z,99.90
2018-11-06T07:14:02.018Z,99.90
2018-11-06T07:16:33.018Z,99.90
2018-11-06T07:19:03.941Z,99.90
2018-11-06T07:21:34.842Z,99.90
2018-11-06T07:24:05.875Z,99.90
2018-11-06T07:26:36.872Z,99.90
2018-11-06T07:29:07.910Z,99.90
2018-11-06T07:31:38.867Z,99.90
2018-11-06T07:34:09.825Z,99.90
2018-11-06T07:36:40.736Z,99.90
2018-11-06T07:39:12.998Z,99.90
2018-11-06T07:41:43.906Z,99.90
2018-11-06T07:44:14.798Z,99.90
2018-11-06T07:46:45.752Z,99.90
2018-11-06T07:49:16.656Z,99.90
2018-11-06T07:51:47.551Z,99.90
2018-11-06T07:54:18.506Z,99.90
2018-11-06T07:56:49.427Z,98.20
2018-11-06T07:59:20.810Z,98.90
2018-11-06T08:01:51.700Z,99.50
2018-11-06T08:04:22.710Z,98.20
2018-11-06T08:06:53.704Z,96.80
2018-11-06T08:09:24.799Z,96.40
2018-11-06T08:11:55.625Z,96.20
2018-11-06T08:14:26.603Z,95.30
2018-11-06T08:16:57.491Z,93.70
2018-11-06T08:19:28.671Z,93.50
2018-11-06T08:21:59.558Z,91.40
2018-11-06T08:24:30.823Z,90.80
2018-11-06T08:27:01.682Z,91.90
2018-11-06T08:29:32.894Z,90.50
2018-11-06T08:32:04.106Z,89.60
2018-11-06T08:34:34.716Z,88.40
2018-11-06T08:37:05.697Z,87.00
2018-11-06T08:39:36.682Z,89.40
2018-11-06T08:42:07.935Z,88.80
2018-11-06T08:44:38.838Z,90.00
2018-11-06T08:47:09.778Z,90.30
2018-11-06T08:49:40.722Z,90.80
2018-11-06T08:52:11.589Z,90.90
2018-11-06T08:54:42.558Z,90.30
2018-11-06T08:57:13.703Z,89.60
2018-11-06T08:59:44.601Z,90.00
2018-11-06T09:02:15.556Z,89.80
2018-11-06T09:04:46.823Z,91.40
2018-11-06T09:07:18.118Z,91.80
2018-11-06T09:09:49.278Z,91.40
2018-11-06T09:12:20.483Z,92.20
2018-11-06T09:14:51.487Z,91.70
2018-11-06T09:17:22.461Z,92.20
2018-11-06T09:19:53.800Z,92.90
2018-11-06T09:22:24.695Z,92.00
2018-11-06T09:24:55.579Z,91.70
2018-11-06T09:27:26.475Z,91.60
2018-11-06T09:29:57.406Z,91.60
2018-11-06T09:32:28.303Z,91.30
2018-11-06T09:34:59.564Z,91.10
2018-11-06T09:37:30.420Z,91.10
2018-11-06T09:40:01.648Z,90.10
2018-11-06T09:42:32.580Z,87.50
2018-11-06T09:45:03.695Z,84.90
2018-11-06T09:47:34.534Z,83.20
2018-11-06T09:50:06.550Z,81.10
2018-11-06T09:52:37.486Z,83.10
2018-11-06T09:55:08.556Z,80.20
2018-11-06T09:57:39.429Z,77.10
2018-11-06T10:00:18.634Z,74.30
2018-11-06T10:02:49.392Z,76.90
2018-11-06T10:05:20.289Z,74.00
2018-11-06T10:07:51.277Z,76.40
2018-11-06T10:10:22.071Z,75.60
2018-11-06T10:12:52.953Z,76.30
2018-11-06T10:15:23.841Z,75.60
2018-11-06T10:17:54.717Z,79.10
2018-11-06T10:20:25.927Z,79.70
2018-11-06T10:22:56.800Z,79.10
2018-11-06T10:25:28.044Z,81.40
2018-11-06T10:27:58.978Z,81.20
2018-11-06T10:30:29.907Z,81.40
2018-11-06T10:33:00.805Z,81.70
2018-11-06T10:35:31.694Z,80.30
2018-11-06T10:38:02.920Z,81.40
2018-11-06T10:40:34.434Z,82.30
2018-11-06T10:43:05.315Z,83.70
2018-11-06T10:45:36.260Z,85.00
2018-11-06T10:48:07.532Z,84.20
2018-11-06T10:50:38.494Z,84.60
2018-11-06T10:53:09.371Z,82.60
2018-11-06T10:55:40.240Z,81.00
2018-11-06T10:58:11.501Z,81.50
2018-11-06T11:00:59.873Z,81.80
2018-11-06T11:03:39.571Z,79.00
2018-11-06T11:06:10.617Z,79.40
2018-11-06T11:08:41.461Z,79.30
2018-11-06T11:11:12.773Z,77.80
2018-11-06T11:13:44.090Z,78.10
2018-11-06T11:16:15.057Z,78.40
2018-11-06T11:18:46.125Z,77.00
2018-11-06T11:21:17.428Z,77.90
2018-11-06T11:23:49.681Z,78.50
2018-11-06T11:26:20.618Z,79.10
2018-11-06T11:28:51.631Z,79.70
2018-11-06T11:31:22.660Z,80.90
2018-11-06T11:33:53.613Z,79.90
2018-11-06T11:36:24.676Z,80.50
2018-11-06T11:38:55.587Z,81.70
2018-11-06T11:41:26.575Z,82.90
2018-11-06T11:43:58.468Z,82.90
2018-11-06T11:46:29.812Z,83.70
2018-11-06T11:49:00.761Z,83.50
2018-11-06T11:51:31.821Z,83.70
2018-11-06T11:54:03.638Z,84.90
2018-11-06T11:56:34.992Z,85.50
2018-11-06T11:59:06.248Z,86.50
2018-11-06T12:01:37.268Z,87.80
2018-11-06T12:04:08.956Z,86.40
2018-11-06T12:06:40.020Z,85.20
2018-11-06T12:09:11.813Z,84.40
2018-11-06T12:11:43.337Z,82.00
2018-11-06T12:14:14.305Z,79.10
2018-11-06T12:16:45.250Z,77.90
2018-11-06T12:19:16.226Z,77.70
2018-11-06T12:21:47.529Z,79.50
2018-11-06T12:24:18.701Z,79.40
2018-11-06T12:26:49.562Z,79.20
2018-11-06T12:29:20.641Z,79.20
2018-11-06T12:31:51.579Z,78.50
2018-11-06T12:34:22.522Z,78.20
2018-11-06T12:36:53.515Z,78.80
2018-11-06T12:39:24.741Z,79.30
2018-11-06T12:41:56.630Z,81.20
2018-11-06T12:44:27.573Z,82.30
2018-11-06T12:46:58.611Z,83.90
2018-11-06T12:49:29.626Z,84.40
2018-11-06T12:52:00.613Z,84.70
2018-11-06T12:54:31.888Z,85.40
2018-11-06T12:57:02.960Z,86.10
2018-11-06T12:59:33.937Z,86.80
2018-11-06T13:02:04.849Z,87.20
2018-11-06T13:04:36.130Z,88.30
2018-11-06T13:07:07.329Z,88.30
2018-11-06T13:09:38.370Z,88.30
2018-11-06T13:12:09.562Z,89.10
2018-11-06T13:14:40.850Z,89.80
2018-11-06T13:17:11.847Z,88.90
2018-11-06T13:19:42.912Z,89.70
2018-11-06T13:22:14.173Z,88.50
2018-11-06T13:24:45.229Z,89.10
2018-11-06T13:27:16.960Z,88.00
2018-11-06T13:29:47.906Z,89.10
2018-11-06T13:32:18.927Z,88.60
2018-11-06T13:34:50.213Z,89.50
2018-11-06T13:37:21.300Z,88.60
2018-11-06T13:39:52.358Z,89.80
2018-11-06T13:42:23.640Z,88.70
2018-11-06T13:44:54.863Z,89.70
2018-11-06T13:47:25.831Z,90.10
2018-11-06T13:49:56.810Z,89.40
2018-11-06T13:52:27.797Z,89.30
2018-11-06T13:54:59.208Z,90.20
2018-11-06T13:57:30.144Z,90.10
2018-11-06T14:00:01.130Z,90.40
2018-11-06T14:02:32.150Z,90.40
2018-11-06T14:05:03.450Z,90.50
2018-11-06T14:07:34.700Z,90.70
2018-11-06T14:10:05.784Z,90.60
2018-11-06T14:12:37.762Z,90.90
2018-11-06T14:15:08.906Z,90.60
2018-11-06T14:17:40.341Z,90.40
2018-11-06T14:20:13.648Z,90.50
2018-11-06T14:22:45.085Z,90.40
2018-11-06T14:25:16.134Z,90.20
2018-11-06T14:27:47.087Z,90.20
2018-11-06T14:30:19.787Z,90.10
2018-11-06T14:32:51.143Z,90.20
2018-11-06T14:35:22.073Z,90.10
2018-11-06T14:37:53.114Z,90.30
2018-11-06T14:40:24.382Z,90.50
2018-11-06T14:42:55.528Z,90.60
2018-11-06T14:45:26.386Z,90.80
2018-11-06T14:47:57.526Z,91.20
2018-11-06T14:50:28.402Z,91.40
2018-11-06T14:52:59.496Z,91.50
2018-11-06T14:55:30.779Z,91.80
2018-11-06T14:58:01.821Z,91.80
2018-11-06T15:00:32.786Z,92.00
2018-11-06T15:03:03.929Z,92.20
2018-11-06T15:05:35.039Z,92.70
2018-11-06T15:08:06.181Z,92.80
2018-11-06T15:10:37.207Z,92.80
2018-11-06T15:13:08.350Z,92.90
2018-11-06T15:15:39.396Z,93.10
2018-11-06T15:18:10.478Z,93.30
2018-11-06T15:20:41.771Z,93.50
2018-11-06T15:23:12.642Z,93.70
2018-11-06T15:25:43.675Z,94.00
2018-11-06T15:28:15.033Z,94.20
2018-11-06T15:30:46.007Z,94.40
2018-11-06T15:33:17.365Z,94.40
2018-11-06T15:35:48.977Z,94.60
2018-11-06T15:38:20.014Z,94.40
2018-11-06T15:40:51.157Z,94.30
2018-11-06T15:43:22.786Z,94.50
2018-11-06T15:45:53.764Z,94.60
2018-11-06T15:48:24.922Z,94.70
2018-11-06T15:50:55.915Z,94.80
2018-11-06T15:53:26.999Z,95.00
2018-11-06T15:55:58.149Z,95.10
2018-11-06T15:58:29.163Z,95.20
2018-11-06T16:01:00.314Z,95.30
2018-11-06T16:03:31.407Z,95.40
2018-11-06T16:06:02.675Z,95.10
2018-11-06T16:08:33.783Z,95.40
2018-11-06T16:11:04.771Z,95.30
2018-11-06T16:13:36.167Z,95.20
2018-11-06T16:16:07.656Z,95.10
2018-11-06T16:18:38.638Z,94.90
2018-11-06T16:21:09.764Z,94.80
2018-11-06T16:23:40.769Z,94.70
2018-11-06T16:26:11.824Z,94.50
2018-11-06T16:28:42.825Z,94.40
2018-11-06T16:31:13.861Z,94.30
2018-11-06T16:33:44.837Z,94.40
2018-11-06T16:36:15.821Z,94.30
2018-11-06T16:38:47.717Z,94.60
2018-11-06T16:41:18.706Z,94.40
2018-11-06T16:43:50.407Z,94.40
2018-11-06T16:46:21.538Z,94.10
2018-11-06T16:48:52.528Z,93.90
2018-11-06T16:51:23.600Z,93.50
2018-11-06T16:53:54.581Z,93.40
2018-11-06T16:56:25.589Z,93.00
2018-11-06T16:58:56.575Z,92.60
2018-11-06T17:01:27.549Z,92.50
2018-11-06T17:03:58.515Z,92.40
2018-11-06T17:06:48.383Z,92.40
2018-11-06T17:09:20.399Z,92.70
2018-11-06T17:11:51.439Z,93.00
2018-11-06T17:14:22.442Z,93.00
2018-11-06T17:16:53.521Z,92.90
2018-11-06T17:19:24.635Z,92.90
2018-11-06T17:21:55.714Z,92.90
2018-11-06T17:24:26.911Z,92.70
2018-11-06T17:26:57.896Z,92.60
2018-11-06T17:29:28.864Z,93.00
2018-11-06T17:31:59.942Z,93.10
2018-11-06T17:34:30.907Z,93.40
2018-11-06T17:37:01.934Z,93.40
2018-11-06T17:39:32.949Z,93.60
2018-11-06T17:42:04.346Z,93.80
2018-11-06T17:44:35.305Z,94.00
2018-11-06T17:47:06.502Z,94.30
2018-11-06T17:49:37.573Z,94.90
2018-11-06T17:52:08.824Z,95.20
2018-11-06T17:54:40.230Z,95.30
2018-11-06T17:57:11.280Z,95.40
2018-11-06T17:59:42.591Z,95.70
2018-11-06T18:02:13.751Z,96.00
2018-11-06T18:04:44.758Z,96.20
2018-11-06T18:07:16.076Z,96.70
2018-11-06T18:09:47.168Z,96.70
2018-11-06T18:12:18.597Z,97.50
2018-11-06T18:14:49.712Z,97.60
2018-11-06T18:17:21.437Z,98.30
2018-11-06T18:19:52.453Z,98.50
2018-11-06T18:22:23.544Z,98.80
2018-11-06T18:24:54.516Z,98.40
2018-11-06T18:27:25.580Z,98.30
2018-11-06T18:29:56.642Z,99.40
2018-11-06T18:32:27.797Z,99.70
2018-11-06T18:34:58.732Z,99.30
2018-11-06T18:37:29.836Z,99.40
2018-11-06T18:40:00.850Z,99.70
2018-11-06T18:42:32.102Z,99.80
2018-11-06T18:45:03.273Z,99.90
2018-11-06T18:47:34.421Z,99.60
2018-11-06T18:50:06.045Z,99.30
2018-11-06T18:52:37.180Z,99.10
2018-11-06T18:55:08.659Z,98.90
2018-11-06T18:57:39.717Z,98.70
2018-11-06T19:00:13.971Z,98.90
2018-11-06T19:02:46.691Z,99.00
2018-11-06T19:05:18.291Z,99.90
2018-11-06T19:07:49.601Z,99.90
2018-11-06T19:10:20.777Z,99.90
2018-11-06T19:12:52.085Z,99.90
2018-11-06T19:15:24.192Z,99.90
2018-11-06T19:17:55.188Z,99.90
2018-11-06T19:20:26.097Z,99.90
2018-11-06T19:22:57.037Z,99.90
2018-11-06T19:25:28.354Z,99.90
2018-11-06T19:28:00.015Z,99.90
2018-11-06T19:30:31.260Z,99.90
2018-11-06T19:33:02.086Z,99.90
2018-11-06T19:35:33.027Z,99.90
2018-11-06T19:38:04.672Z,99.90
2018-11-06T19:40:35.925Z,99.90
2018-11-06T19:43:06.913Z,99.90
2018-11-06T19:45:37.805Z,99.90
2018-11-06T19:48:09.519Z,99.90
2018-11-06T19:50:40.416Z,99.90
2018-11-06T19:53:12.170Z,99.90
2018-11-06T19:55:44.167Z,99.90
2018-11-06T19:58:15.467Z,99.90
2018-11-06T20:00:46.798Z,99.90
2018-11-06T20:03:17.572Z,99.80
2018-11-06T20:05:48.506Z,99.90
2018-11-06T20:08:19.390Z,99.70
2018-11-06T20:10:50.280Z,99.90
2018-11-06T20:13:21.271Z,99.90
2018-11-06T20:15:52.252Z,99.90
2018-11-06T20:18:23.207Z,99.90
2018-11-06T20:20:54.114Z,99.90
2018-11-06T20:23:25.657Z,99.90
2018-11-06T20:25:56.961Z,99.90
2018-11-06T20:28:27.888Z,99.90
2018-11-06T20:30:58.826Z,99.90
2018-11-06T20:33:29.946Z,99.90
2018-11-06T20:36:03.175Z,99.90
2018-11-06T20:38:34.151Z,99.90
2018-11-06T20:41:05.397Z,99.90
2018-11-06T20:43:36.336Z,99.90
2018-11-06T20:46:07.546Z,99.90
2018-11-06T20:48:38.705Z,99.90
2018-11-06T20:51:09.601Z,99.90
2018-11-06T20:53:40.699Z,99.90
2018-11-06T20:56:11.533Z,99.90
2018-11-06T20:58:42.435Z,99.90
2018-11-06T21:01:13.496Z,99.90
2018-11-06T21:03:44.284Z,99.90
2018-11-06T21:06:16.205Z,99.90
2018-11-06T21:08:47.784Z,99.90
2018-11-06T21:11:18.817Z,99.90
2018-11-06T21:13:49.785Z,99.90
2018-11-06T21:16:20.915Z,99.90
2018-11-06T21:18:52.173Z,99.90
2018-11-06T21:21:23.126Z,99.90
2018-11-06T21:23:54.008Z,99.90
2018-11-06T21:26:25.016Z,99.90
2018-11-06T21:28:56.233Z,99.90
2018-11-06T21:31:27.318Z,99.90
2018-11-06T21:33:58.323Z,99.90
2018-11-06T21:36:29.190Z,99.90
2018-11-06T21:39:00.129Z,99.90
2018-11-06T21:41:30.998Z,99.90
2018-11-06T21:44:01.952Z,99.90
2018-11-06T21:46:33.169Z,99.90
2018-11-06T21:49:04.428Z,99.90
2018-11-06T21:51:35.435Z,99.90
2018-11-06T21:54:07.525Z,99.90
2018-11-06T21:56:38.445Z,99.90
2018-11-06T21:59:09.409Z,99.90
2018-11-06T22:01:40.326Z,99.90
2018-11-06T22:04:11.534Z,99.90
2018-11-06T22:06:42.423Z,99.90
2018-11-06T22:09:13.343Z,99.90
2018-11-06T22:11:44.299Z,99.90
2018-11-06T22:14:15.169Z,99.90
2018-11-06T22:16:46.419Z,99.90
2018-11-06T22:19:17.334Z,99.90
2018-11-06T22:21:48.227Z,99.90
2018-11-06T22:24:19.197Z,99.90
2018-11-06T22:26:50.476Z,99.90
2018-11-06T22:29:21.451Z,99.90
2018-11-06T22:31:52.409Z,99.90
2018-11-06T22:34:23.530Z,99.90
2018-11-06T22:36:54.560Z,99.90
2018-11-06T22:39:25.536Z,99.90
2018-11-06T22:41:56.431Z,99.90
2018-11-06T22:44:27.381Z,99.90
2018-11-06T22:46:58.278Z,99.90
2018-11-06T22:49:29.157Z,99.90
2018-11-06T22:52:00.096Z,99.90
2018-11-06T22:54:31.350Z,99.90
2018-11-06T22:57:02.246Z,99.90
2018-11-06T22:59:33.217Z,99.90
2018-11-06T23:02:04.749Z,99.90
2018-11-06T23:04:36.069Z,99.90
2018-11-06T23:07:07.642Z,99.90
2018-11-06T23:09:38.466Z,99.90
2018-11-06T23:12:09.936Z,99.90
2018-11-06T23:14:40.802Z,99.90
2018-11-06T23:17:11.672Z,99.90
2018-11-06T23:19:42.862Z,99.90
2018-11-06T23:22:13.743Z,99.90
2018-11-06T23:24:44.681Z,99.90
2018-11-06T23:27:16.564Z,99.90
2018-11-06T23:29:47.434Z,99.90
2018-11-06T23:32:18.392Z,99.90
2018-11-06T23:34:49.291Z,99.90
2018-11-06T23:37:20.133Z,99.90
2018-11-06T23:39:51.020Z,99.90
2018-11-06T23:42:21.872Z,99.90
2018-11-06T23:44:53.094Z,99.90
2018-11-06T23:47:23.966Z,99.90
2018-11-06T23:49:54.831Z,99.90
2018-11-06T23:52:25.682Z,99.90
2018-11-06T23:54:56.551Z,99.90
2018-11-06T23:57:28.286Z,99.90
2018-11-06T23:59:59.866Z,99.90
